sensor_id;sensor_type;location;lat;lon;timestamp;pressure;altitude;pressure_sealevel;temperature;humidity
39275;BME280;24980;48.874;2.332;2023-09-12T00:01:19;100804.17;;;31.11;40.30
39275;BME280;24980;48.874;2.332;2023-09-12T00:03:53;100807.03;;;31.12;40.35
39275;BME280;24980;48.874;2.332;2023-09-12T00:06:19;100812.36;;;31.11;40.38
39275;BME280;24980;48.874;2.332;2023-09-12T00:08:52;100811.77;;;31.10;40.44
39275;BME280;24980;48.874;2.332;2023-09-12T00:11:21;100811.09;;;31.10;40.47
39275;BME280;24980;48.874;2.332;2023-09-12T00:13:54;100812.35;;;31.08;40.51
39275;BME280;24980;48.874;2.332;2023-09-12T00:16:25;100811.38;;;31.08;40.52
39275;BME280;24980;48.874;2.332;2023-09-12T00:18:54;100810.66;;;31.06;40.51
39275;BME280;24980;48.874;2.332;2023-09-12T00:21:23;100805.30;;;31.04;40.49
39275;BME280;24980;48.874;2.332;2023-09-12T00:23:53;100808.69;;;31.03;40.47
39275;BME280;24980;48.874;2.332;2023-09-12T00:26:27;100809.84;;;31.01;40.46
39275;BME280;24980;48.874;2.332;2023-09-12T00:28:54;100808.70;;;31.00;40.45
39275;BME280;24980;48.874;2.332;2023-09-12T00:31:26;100808.40;;;30.97;40.44
39275;BME280;24980;48.874;2.332;2023-09-12T00:33:56;100813.84;;;30.94;40.42
39275;BME280;24980;48.874;2.332;2023-09-12T00:36:29;100813.84;;;30.92;40.42
39275;BME280;24980;48.874;2.332;2023-09-12T00:38:57;100816.19;;;30.90;40.41
39275;BME280;24980;48.874;2.332;2023-09-12T00:41:30;100813.31;;;30.88;40.40
39275;BME280;24980;48.874;2.332;2023-09-12T00:43:58;100811.11;;;30.87;40.39
39275;BME280;24980;48.874;2.332;2023-09-12T00:46:29;100809.12;;;30.86;40.39
39275;BME280;24980;48.874;2.332;2023-09-12T00:49:05;100807.58;;;30.84;40.38
39275;BME280;24980;48.874;2.332;2023-09-12T00:51:31;100806.72;;;30.83;40.39
39275;BME280;24980;48.874;2.332;2023-09-12T00:54:03;100800.48;;;30.82;40.39
39275;BME280;24980;48.874;2.332;2023-09-12T00:56:32;100800.27;;;30.80;40.38
39275;BME280;24980;48.874;2.332;2023-09-12T00:59:02;100799.61;;;30.79;40.40
39275;BME280;24980;48.874;2.332;2023-09-12T01:01:32;100798.98;;;30.80;40.40
39275;BME280;24980;48.874;2.332;2023-09-12T01:04:03;100799.20;;;30.77;40.41
39275;BME280;24980;48.874;2.332;2023-09-12T01:06:33;100800.94;;;30.77;40.41
39275;BME280;24980;48.874;2.332;2023-09-12T01:09:04;100804.22;;;30.76;40.41
39275;BME280;24980;48.874;2.332;2023-09-12T01:11:35;100803.27;;;30.75;40.40
39275;BME280;24980;48.874;2.332;2023-09-12T01:14:06;100804.35;;;30.74;40.43
39275;BME280;24980;48.874;2.332;2023-09-12T01:16:36;100804.83;;;30.71;40.44
39275;BME280;24980;48.874;2.332;2023-09-12T01:19:07;100798.73;;;30.69;40.46
39275;BME280;24980;48.874;2.332;2023-09-12T01:26:56;100785.69;;;30.67;40.49
39275;BME280;24980;48.874;2.332;2023-09-12T01:29:07;100776.52;;;30.66;40.50
39275;BME280;24980;48.874;2.332;2023-09-12T01:31:37;100778.62;;;30.65;40.52
39275;BME280;24980;48.874;2.332;2023-09-12T01:34:10;100781.59;;;30.64;40.54
39275;BME280;24980;48.874;2.332;2023-09-12T01:36:38;100794.66;;;30.60;40.57
39275;BME280;24980;48.874;2.332;2023-09-12T01:39:08;100797.40;;;30.57;40.61
39275;BME280;24980;48.874;2.332;2023-09-12T01:41:40;100800.94;;;30.57;40.63
39275;BME280;24980;48.874;2.332;2023-09-12T01:44:10;100807.95;;;30.55;40.65
39275;BME280;24980;48.874;2.332;2023-09-12T01:46:39;100807.25;;;30.52;40.68
39275;BME280;24980;48.874;2.332;2023-09-12T01:49:14;100803.20;;;30.51;40.70
39275;BME280;24980;48.874;2.332;2023-09-12T01:54:13;100794.16;;;30.50;40.73
39275;BME280;24980;48.874;2.332;2023-09-12T01:56:45;100798.52;;;30.49;40.75
39275;BME280;24980;48.874;2.332;2023-09-12T01:59:11;100797.52;;;30.48;40.76
39275;BME280;24980;48.874;2.332;2023-09-12T02:01:44;100803.55;;;30.47;40.79
39275;BME280;24980;48.874;2.332;2023-09-12T02:04:14;100800.78;;;30.47;40.80
39275;BME280;24980;48.874;2.332;2023-09-12T02:06:49;100804.98;;;30.46;40.82
39275;BME280;24980;48.874;2.332;2023-09-12T02:09:20;100807.14;;;30.47;40.85
39275;BME280;24980;48.874;2.332;2023-09-12T02:11:43;100807.06;;;30.46;40.87
39275;BME280;24980;48.874;2.332;2023-09-12T02:14:17;100805.90;;;30.44;40.90
39275;BME280;24980;48.874;2.332;2023-09-12T02:16:44;100805.39;;;30.41;40.93
39275;BME280;24980;48.874;2.332;2023-09-12T02:19:16;100806.00;;;30.40;40.94
39275;BME280;24980;48.874;2.332;2023-09-12T02:21:45;100805.12;;;30.39;40.96
39275;BME280;24980;48.874;2.332;2023-09-12T02:24:16;100801.88;;;30.39;40.98
39275;BME280;24980;48.874;2.332;2023-09-12T02:26:46;100801.92;;;30.38;41.01
39275;BME280;24980;48.874;2.332;2023-09-12T02:29:16;100803.53;;;30.37;41.04
39275;BME280;24980;48.874;2.332;2023-09-12T02:31:46;100799.48;;;30.36;41.08
39275;BME280;24980;48.874;2.332;2023-09-12T02:34:16;100802.16;;;30.34;41.12
39275;BME280;24980;48.874;2.332;2023-09-12T02:36:46;100807.95;;;30.32;41.18
39275;BME280;24980;48.874;2.332;2023-09-12T02:39:16;100805.00;;;30.30;41.23
39275;BME280;24980;48.874;2.332;2023-09-12T02:41:46;100805.66;;;30.30;41.27
39275;BME280;24980;48.874;2.332;2023-09-12T02:44:16;100801.59;;;30.29;41.30
39275;BME280;24980;48.874;2.332;2023-09-12T02:46:47;100797.34;;;30.29;41.32
39275;BME280;24980;48.874;2.332;2023-09-12T02:49:17;100798.41;;;30.28;41.36
39275;BME280;24980;48.874;2.332;2023-09-12T02:51:47;100793.70;;;30.26;41.37
39275;BME280;24980;48.874;2.332;2023-09-12T02:54:17;100789.72;;;30.26;41.38
39275;BME280;24980;48.874;2.332;2023-09-12T02:56:47;100783.39;;;30.24;41.40
39275;BME280;24980;48.874;2.332;2023-09-12T02:59:18;100786.72;;;30.21;41.40
39275;BME280;24980;48.874;2.332;2023-09-12T03:01:51;100786.27;;;30.18;41.39
39275;BME280;24980;48.874;2.332;2023-09-12T03:04:21;100787.21;;;30.16;41.38
39275;BME280;24980;48.874;2.332;2023-09-12T03:06:48;100787.89;;;30.11;41.39
39275;BME280;24980;48.874;2.332;2023-09-12T03:09:21;100788.05;;;30.08;41.39
39275;BME280;24980;48.874;2.332;2023-09-12T03:11:49;100786.52;;;30.08;41.37
39275;BME280;24980;48.874;2.332;2023-09-12T03:14:20;100785.88;;;30.06;41.37
39275;BME280;24980;48.874;2.332;2023-09-12T03:16:50;100788.28;;;30.06;41.37
39275;BME280;24980;48.874;2.332;2023-09-12T03:19:24;100787.23;;;30.05;41.37
39275;BME280;24980;48.874;2.332;2023-09-12T03:21:56;100790.75;;;30.03;41.39
39275;BME280;24980;48.874;2.332;2023-09-12T03:24:22;100793.77;;;30.01;41.38
39275;BME280;24980;48.874;2.332;2023-09-12T03:26:52;100804.08;;;30.01;41.38
39275;BME280;24980;48.874;2.332;2023-09-12T03:29:22;100806.08;;;30.01;41.40
39275;BME280;24980;48.874;2.332;2023-09-12T03:31:52;100802.52;;;30.00;41.42
39275;BME280;24980;48.874;2.332;2023-09-12T03:34:22;100803.22;;;29.98;41.43
39275;BME280;24980;48.874;2.332;2023-09-12T03:36:52;100809.92;;;29.97;41.45
39275;BME280;24980;48.874;2.332;2023-09-12T03:39:22;100819.09;;;29.95;41.47
39275;BME280;24980;48.874;2.332;2023-09-12T03:41:54;100812.80;;;29.94;41.51
39275;BME280;24980;48.874;2.332;2023-09-12T03:44:22;100809.14;;;29.92;41.52
39275;BME280;24980;48.874;2.332;2023-09-12T03:46:53;100812.39;;;29.88;41.56
39275;BME280;24980;48.874;2.332;2023-09-12T03:49:23;100812.89;;;29.87;41.57
39275;BME280;24980;48.874;2.332;2023-09-12T03:51:56;100821.70;;;29.85;41.60
39275;BME280;24980;48.874;2.332;2023-09-12T03:54:40;100821.82;;;29.83;41.61
39275;BME280;24980;48.874;2.332;2023-09-12T03:56:54;100825.52;;;29.79;41.63
39275;BME280;24980;48.874;2.332;2023-09-12T03:59:24;100822.95;;;29.76;41.66
39275;BME280;24980;48.874;2.332;2023-09-12T04:04:25;100832.33;;;29.74;41.66
39275;BME280;24980;48.874;2.332;2023-09-12T04:06:55;100835.12;;;29.75;41.66
39275;BME280;24980;48.874;2.332;2023-09-12T04:09:25;100829.86;;;29.74;41.67
39275;BME280;24980;48.874;2.332;2023-09-12T04:11:55;100824.88;;;29.73;41.69
39275;BME280;24980;48.874;2.332;2023-09-12T04:14:26;100818.77;;;29.72;41.72
39275;BME280;24980;48.874;2.332;2023-09-12T04:16:55;100816.79;;;29.72;41.74
39275;BME280;24980;48.874;2.332;2023-09-12T04:19:25;100813.33;;;29.70;41.76
39275;BME280;24980;48.874;2.332;2023-09-12T04:21:55;100817.52;;;29.66;41.80
39275;BME280;24980;48.874;2.332;2023-09-12T04:24:30;100817.56;;;29.65;41.82
39275;BME280;24980;48.874;2.332;2023-09-12T04:26:56;100822.62;;;29.64;41.83
39275;BME280;24980;48.874;2.332;2023-09-12T04:29:26;100828.80;;;29.62;41.84
39275;BME280;24980;48.874;2.332;2023-09-12T04:31:56;100832.57;;;29.62;41.83
39275;BME280;24980;48.874;2.332;2023-09-12T04:34:26;100837.62;;;29.61;41.84
39275;BME280;24980;48.874;2.332;2023-09-12T04:36:57;100836.02;;;29.61;41.85
39275;BME280;24980;48.874;2.332;2023-09-12T04:39:30;100837.20;;;29.61;41.85
39275;BME280;24980;48.874;2.332;2023-09-12T04:44:29;100843.73;;;29.58;41.90
39275;BME280;24980;48.874;2.332;2023-09-12T04:46:59;100846.34;;;29.57;41.92
39275;BME280;24980;48.874;2.332;2023-09-12T04:49:32;100846.41;;;29.58;41.93
39275;BME280;24980;48.874;2.332;2023-09-12T04:52:08;100850.03;;;29.55;41.94
39275;BME280;24980;48.874;2.332;2023-09-12T04:54:33;100852.05;;;29.52;41.97
39275;BME280;24980;48.874;2.332;2023-09-12T04:57:06;100855.12;;;29.50;41.99
39275;BME280;24980;48.874;2.332;2023-09-12T04:59:34;100856.12;;;29.49;42.00
39275;BME280;24980;48.874;2.332;2023-09-12T05:02:02;100847.70;;;29.48;42.01
39275;BME280;24980;48.874;2.332;2023-09-12T05:04:36;100840.70;;;29.48;42.02
39275;BME280;24980;48.874;2.332;2023-09-12T05:07:03;100840.67;;;29.47;42.05
39275;BME280;24980;48.874;2.332;2023-09-12T05:09:36;100844.27;;;29.47;42.06
39275;BME280;24980;48.874;2.332;2023-09-12T05:12:04;100837.52;;;29.47;42.08
39275;BME280;24980;48.874;2.332;2023-09-12T05:14:40;100836.62;;;29.46;42.10
39275;BME280;24980;48.874;2.332;2023-09-12T05:17:11;100836.71;;;29.44;42.11
39275;BME280;24980;48.874;2.332;2023-09-12T05:19:35;100844.72;;;29.42;42.13
39275;BME280;24980;48.874;2.332;2023-09-12T05:22:08;100857.72;;;29.40;42.14
39275;BME280;24980;48.874;2.332;2023-09-12T05:24:51;100859.39;;;29.37;42.15
39275;BME280;24980;48.874;2.332;2023-09-12T05:27:07;100866.56;;;29.35;42.16
39275;BME280;24980;48.874;2.332;2023-09-12T05:29:38;100865.30;;;29.33;42.17
39275;BME280;24980;48.874;2.332;2023-09-12T05:32:07;100866.67;;;29.31;42.17
39275;BME280;24980;48.874;2.332;2023-09-12T05:34:38;100863.95;;;29.31;42.19
39275;BME280;24980;48.874;2.332;2023-09-12T05:37:07;100860.34;;;29.29;42.20
39275;BME280;24980;48.874;2.332;2023-09-12T05:39:38;100858.44;;;29.28;42.21
39275;BME280;24980;48.874;2.332;2023-09-12T05:42:07;100866.27;;;29.26;42.22
39275;BME280;24980;48.874;2.332;2023-09-12T05:44:37;100868.56;;;29.25;42.23
39275;BME280;24980;48.874;2.332;2023-09-12T05:47:07;100859.70;;;29.23;42.23
39275;BME280;24980;48.874;2.332;2023-09-12T05:49:37;100855.21;;;29.22;42.22
39275;BME280;24980;48.874;2.332;2023-09-12T05:52:07;100859.62;;;29.22;42.22
39275;BME280;24980;48.874;2.332;2023-09-12T05:54:38;100860.64;;;29.22;42.22
39275;BME280;24980;48.874;2.332;2023-09-12T05:57:09;100860.48;;;29.22;42.23
39275;BME280;24980;48.874;2.332;2023-09-12T05:59:42;100858.86;;;29.21;42.24
39275;BME280;24980;48.874;2.332;2023-09-12T06:02:13;100860.51;;;29.21;42.26
39275;BME280;24980;48.874;2.332;2023-09-12T06:04:44;100861.55;;;29.20;42.30
39275;BME280;24980;48.874;2.332;2023-09-12T06:07:12;100863.88;;;29.19;42.29
39275;BME280;24980;48.874;2.332;2023-09-12T06:09:42;100869.88;;;29.19;42.31
39275;BME280;24980;48.874;2.332;2023-09-12T06:12:12;100869.58;;;29.14;42.33
39275;BME280;24980;48.874;2.332;2023-09-12T06:14:42;100873.65;;;29.13;42.36
39275;BME280;24980;48.874;2.332;2023-09-12T06:17:12;100880.48;;;29.11;42.37
39275;BME280;24980;48.874;2.332;2023-09-12T06:19:42;100885.72;;;29.08;42.40
39275;BME280;24980;48.874;2.332;2023-09-12T06:22:12;100886.39;;;29.04;42.45
39275;BME280;24980;48.874;2.332;2023-09-12T06:24:45;100880.17;;;28.98;42.49
39275;BME280;24980;48.874;2.332;2023-09-12T06:27:12;100878.42;;;28.95;42.52
39275;BME280;24980;48.874;2.332;2023-09-12T06:29:43;100874.34;;;28.93;42.54
39275;BME280;24980;48.874;2.332;2023-09-12T06:32:13;100880.82;;;28.91;42.55
39275;BME280;24980;48.874;2.332;2023-09-12T06:34:43;100885.87;;;28.89;42.58
39275;BME280;24980;48.874;2.332;2023-09-12T06:37:17;100888.08;;;28.85;42.64
39275;BME280;24980;48.874;2.332;2023-09-12T06:39:48;100889.95;;;28.83;42.66
39275;BME280;24980;48.874;2.332;2023-09-12T06:42:14;100883.02;;;28.79;42.70
39275;BME280;24980;48.874;2.332;2023-09-12T06:44:44;100878.68;;;28.79;42.71
39275;BME280;24980;48.874;2.332;2023-09-12T06:47:14;100870.17;;;28.78;42.72
39275;BME280;24980;48.874;2.332;2023-09-12T06:49:45;100872.83;;;28.76;42.77
39275;BME280;24980;48.874;2.332;2023-09-12T06:52:15;100875.91;;;28.76;42.79
39275;BME280;24980;48.874;2.332;2023-09-12T06:54:45;100874.59;;;28.74;42.82
39275;BME280;24980;48.874;2.332;2023-09-12T06:57:15;100878.36;;;28.74;42.87
39275;BME280;24980;48.874;2.332;2023-09-12T06:59:45;100879.47;;;28.70;42.92
39275;BME280;24980;48.874;2.332;2023-09-12T07:02:18;100880.30;;;28.68;42.97
39275;BME280;24980;48.874;2.332;2023-09-12T07:04:46;100878.88;;;28.67;43.00
39275;BME280;24980;48.874;2.332;2023-09-12T07:07:16;100879.52;;;28.67;43.03
39275;BME280;24980;48.874;2.332;2023-09-12T07:09:46;100875.09;;;28.64;43.06
39275;BME280;24980;48.874;2.332;2023-09-12T07:12:16;100881.50;;;28.61;43.09
39275;BME280;24980;48.874;2.332;2023-09-12T07:14:49;100883.98;;;28.57;43.11
39275;BME280;24980;48.874;2.332;2023-09-12T07:17:19;100890.62;;;28.55;43.13
39275;BME280;24980;48.874;2.332;2023-09-12T07:19:50;100891.92;;;28.52;43.14
39275;BME280;24980;48.874;2.332;2023-09-12T07:22:18;100894.48;;;28.50;43.17
39275;BME280;24980;48.874;2.332;2023-09-12T07:24:50;100895.38;;;28.49;43.20
39275;BME280;24980;48.874;2.332;2023-09-12T07:27:19;100896.87;;;28.46;43.24
39275;BME280;24980;48.874;2.332;2023-09-12T07:29:50;100894.33;;;28.45;43.24
39275;BME280;24980;48.874;2.332;2023-09-12T07:32:21;100889.67;;;28.42;43.27
39275;BME280;24980;48.874;2.332;2023-09-12T07:34:51;100895.00;;;28.39;43.31
39275;BME280;24980;48.874;2.332;2023-09-12T07:37:27;100896.97;;;28.37;43.33
39275;BME280;24980;48.874;2.332;2023-09-12T07:39:54;100898.29;;;28.36;43.35
39275;BME280;24980;48.874;2.332;2023-09-12T07:42:23;100905.19;;;28.34;43.37
39275;BME280;24980;48.874;2.332;2023-09-12T07:44:57;100903.56;;;28.35;43.39
39275;BME280;24980;48.874;2.332;2023-09-12T07:47:28;100906.05;;;28.36;43.40
39275;BME280;24980;48.874;2.332;2023-09-12T07:52:24;100901.86;;;28.47;43.35
39275;BME280;24980;48.874;2.332;2023-09-12T07:55:00;100898.93;;;28.52;43.32
39275;BME280;24980;48.874;2.332;2023-09-12T07:57:25;100896.94;;;28.55;43.30
39275;BME280;24980;48.874;2.332;2023-09-12T07:59:56;100898.56;;;28.57;43.29
39275;BME280;24980;48.874;2.332;2023-09-12T08:02:29;100902.81;;;28.60;43.29
39275;BME280;24980;48.874;2.332;2023-09-12T08:04:57;100902.45;;;28.62;43.29
39275;BME280;24980;48.874;2.332;2023-09-12T08:07:26;100901.07;;;28.64;43.29
39275;BME280;24980;48.874;2.332;2023-09-12T08:09:58;100902.14;;;28.66;43.31
39275;BME280;24980;48.874;2.332;2023-09-12T08:12:27;100905.21;;;28.68;43.34
39275;BME280;24980;48.874;2.332;2023-09-12T08:14:57;100904.30;;;28.70;43.38
39275;BME280;24980;48.874;2.332;2023-09-12T08:17:28;100904.58;;;28.71;43.40
39275;BME280;24980;48.874;2.332;2023-09-12T08:19:58;100912.88;;;28.73;43.43
39275;BME280;24980;48.874;2.332;2023-09-12T08:22:31;100914.75;;;28.73;43.46
39275;BME280;24980;48.874;2.332;2023-09-12T08:24:58;100917.68;;;28.74;43.49
39275;BME280;24980;48.874;2.332;2023-09-12T08:27:36;100920.97;;;28.73;43.50
39275;BME280;24980;48.874;2.332;2023-09-12T08:30:05;100919.65;;;28.74;43.51
39275;BME280;24980;48.874;2.332;2023-09-12T08:32:30;100917.66;;;28.74;43.54
39275;BME280;24980;48.874;2.332;2023-09-12T08:35:00;100917.91;;;28.75;43.54
39275;BME280;24980;48.874;2.332;2023-09-12T08:37:34;100915.77;;;28.75;43.55
39275;BME280;24980;48.874;2.332;2023-09-12T08:40:01;100910.96;;;28.76;43.57
39275;BME280;24980;48.874;2.332;2023-09-12T08:42:32;100913.69;;;28.76;43.57
39275;BME280;24980;48.874;2.332;2023-09-12T08:45:02;100915.48;;;28.76;43.58
39275;BME280;24980;48.874;2.332;2023-09-12T08:47:35;100919.84;;;28.76;43.61
39275;BME280;24980;48.874;2.332;2023-09-12T08:50:04;100924.25;;;28.76;43.62
39275;BME280;24980;48.874;2.332;2023-09-12T08:52:34;100926.47;;;28.76;43.64
39275;BME280;24980;48.874;2.332;2023-09-12T08:55:04;100922.89;;;28.76;43.65
39275;BME280;24980;48.874;2.332;2023-09-12T08:57:40;100922.48;;;28.76;43.65
39275;BME280;24980;48.874;2.332;2023-09-12T09:00:06;100915.73;;;28.76;43.65
39275;BME280;24980;48.874;2.332;2023-09-12T09:02:39;100917.37;;;28.76;43.67
39275;BME280;24980;48.874;2.332;2023-09-12T09:05:08;100922.58;;;28.75;43.67
39275;BME280;24980;48.874;2.332;2023-09-12T09:07:37;100919.44;;;28.75;43.68
39275;BME280;24980;48.874;2.332;2023-09-12T09:10:14;100916.03;;;28.75;43.68
39275;BME280;24980;48.874;2.332;2023-09-12T09:12:39;100918.27;;;28.74;43.67
39275;BME280;24980;48.874;2.332;2023-09-12T09:15:20;100918.95;;;28.74;43.67
39275;BME280;24980;48.874;2.332;2023-09-12T09:17:38;100919.88;;;28.74;43.69
39275;BME280;24980;48.874;2.332;2023-09-12T09:20:08;100918.92;;;28.73;43.70
39275;BME280;24980;48.874;2.332;2023-09-12T09:22:38;100916.31;;;28.74;43.71
39275;BME280;24980;48.874;2.332;2023-09-12T09:25:11;100916.55;;;28.73;43.71
39275;BME280;24980;48.874;2.332;2023-09-12T09:27:39;100915.77;;;28.73;43.72
39275;BME280;24980;48.874;2.332;2023-09-12T09:30:10;100917.51;;;28.74;43.73
39275;BME280;24980;48.874;2.332;2023-09-12T09:32:39;100914.08;;;28.73;43.74
39275;BME280;24980;48.874;2.332;2023-09-12T09:35:11;100913.13;;;28.73;43.74
39275;BME280;24980;48.874;2.332;2023-09-12T09:37:41;100911.27;;;28.72;43.75
39275;BME280;24980;48.874;2.332;2023-09-12T09:40:12;100910.09;;;28.72;43.76
39275;BME280;24980;48.874;2.332;2023-09-12T09:42:42;100913.00;;;28.72;43.79
39275;BME280;24980;48.874;2.332;2023-09-12T09:45:12;100914.31;;;28.71;43.80
39275;BME280;24980;48.874;2.332;2023-09-12T09:47:43;100921.62;;;28.70;43.82
39275;BME280;24980;48.874;2.332;2023-09-12T09:50:16;100925.72;;;28.70;43.84
39275;BME280;24980;48.874;2.332;2023-09-12T09:52:44;100926.53;;;28.68;43.87
39275;BME280;24980;48.874;2.332;2023-09-12T09:55:14;100936.45;;;28.68;43.91
39275;BME280;24980;48.874;2.332;2023-09-12T09:57:45;100940.46;;;28.67;43.94
39275;BME280;24980;48.874;2.332;2023-09-12T10:00:14;100953.15;;;28.66;43.96
39275;BME280;24980;48.874;2.332;2023-09-12T10:02:45;100963.39;;;28.65;43.97
39275;BME280;24980;48.874;2.332;2023-09-12T10:05:16;100977.28;;;28.64;44.01
39275;BME280;24980;48.874;2.332;2023-09-12T10:07:48;100979.45;;;28.62;44.04
39275;BME280;24980;48.874;2.332;2023-09-12T10:10:19;100982.99;;;28.61;44.07
39275;BME280;24980;48.874;2.332;2023-09-12T10:12:53;100981.19;;;28.58;44.10
39275;BME280;24980;48.874;2.332;2023-09-12T10:15:20;100984.39;;;28.54;44.14
39275;BME280;24980;48.874;2.332;2023-09-12T10:17:51;100988.55;;;28.52;44.15
39275;BME280;24980;48.874;2.332;2023-09-12T10:20:21;100989.73;;;28.51;44.15
39275;BME280;24980;48.874;2.332;2023-09-12T10:23:00;100990.66;;;28.51;44.16
39275;BME280;24980;48.874;2.332;2023-09-12T10:25:25;100991.17;;;28.51;44.17
39275;BME280;24980;48.874;2.332;2023-09-12T10:27:52;100993.91;;;28.50;44.19
39275;BME280;24980;48.874;2.332;2023-09-12T10:30:21;100991.27;;;28.50;44.21
39275;BME280;24980;48.874;2.332;2023-09-12T10:32:51;100994.20;;;28.49;44.24
39275;BME280;24980;48.874;2.332;2023-09-12T10:35:21;100995.50;;;28.49;44.24
39275;BME280;24980;48.874;2.332;2023-09-12T10:37:51;100993.28;;;28.48;44.30
39275;BME280;24980;48.874;2.332;2023-09-12T10:40:26;100987.75;;;28.48;44.32
39275;BME280;24980;48.874;2.332;2023-09-12T10:42:55;100984.69;;;28.48;44.35
39275;BME280;24980;48.874;2.332;2023-09-12T10:45:23;100977.84;;;28.47;44.40
39275;BME280;24980;48.874;2.332;2023-09-12T10:47:53;100973.08;;;28.46;44.43
39275;BME280;24980;48.874;2.332;2023-09-12T10:50:25;100972.66;;;28.46;44.46
39275;BME280;24980;48.874;2.332;2023-09-12T10:52:53;100972.94;;;28.45;44.48
39275;BME280;24980;48.874;2.332;2023-09-12T10:55:24;100971.77;;;28.45;44.50
39275;BME280;24980;48.874;2.332;2023-09-12T10:58:09;100970.52;;;28.45;44.53
39275;BME280;24980;48.874;2.332;2023-09-12T11:00:25;100966.97;;;28.45;44.56
39275;BME280;24980;48.874;2.332;2023-09-12T11:05:50;100960.30;;;28.45;44.62
39275;BME280;24980;48.874;2.332;2023-09-12T11:07:58;100958.50;;;28.44;44.67
39275;BME280;24980;48.874;2.332;2023-09-12T11:10:32;100955.64;;;28.45;44.70
39275;BME280;24980;48.874;2.332;2023-09-12T11:15:30;100951.61;;;28.46;44.77
39275;BME280;24980;48.874;2.332;2023-09-12T11:18:01;100949.97;;;28.47;44.83
39275;BME280;24980;48.874;2.332;2023-09-12T11:20:51;100949.44;;;28.47;44.88
39275;BME280;24980;48.874;2.332;2023-09-12T11:23:11;100956.50;;;28.48;44.92
39275;BME280;24980;48.874;2.332;2023-09-12T11:25:30;100956.96;;;28.48;44.99
39275;BME280;24980;48.874;2.332;2023-09-12T11:28:04;100959.42;;;28.49;45.08
39275;BME280;24980;48.874;2.332;2023-09-12T11:30:31;100960.08;;;28.50;45.15
39275;BME280;24980;48.874;2.332;2023-09-12T11:33:05;100963.72;;;28.50;45.25
39275;BME280;24980;48.874;2.332;2023-09-12T11:35:37;100968.69;;;28.50;45.36
39275;BME280;24980;48.874;2.332;2023-09-12T11:38:02;100965.80;;;28.49;45.44
39275;BME280;24980;48.874;2.332;2023-09-12T11:43:04;100963.84;;;28.49;45.57
39275;BME280;24980;48.874;2.332;2023-09-12T11:45:34;100964.02;;;28.49;45.62
39275;BME280;24980;48.874;2.332;2023-09-12T11:48:04;100957.88;;;28.49;45.66
39275;BME280;24980;48.874;2.332;2023-09-12T11:50:36;100949.89;;;28.48;45.70
39275;BME280;24980;48.874;2.332;2023-09-12T11:53:08;100946.27;;;28.48;45.73
39275;BME280;24980;48.874;2.332;2023-09-12T11:55:49;100944.50;;;28.47;45.77
39275;BME280;24980;48.874;2.332;2023-09-12T11:58:11;100947.23;;;28.47;45.81
39275;BME280;24980;48.874;2.332;2023-09-12T12:00:40;100944.68;;;28.47;45.82
39275;BME280;24980;48.874;2.332;2023-09-12T12:03:13;100942.55;;;28.46;45.84
39275;BME280;24980;48.874;2.332;2023-09-12T12:05:39;100943.25;;;28.46;45.85
39275;BME280;24980;48.874;2.332;2023-09-12T12:08:08;100937.45;;;28.46;45.86
39275;BME280;24980;48.874;2.332;2023-09-12T12:10:39;100929.97;;;28.45;45.88
39275;BME280;24980;48.874;2.332;2023-09-12T12:13:17;100928.11;;;28.45;45.87
39275;BME280;24980;48.874;2.332;2023-09-12T12:15:40;100927.12;;;28.44;45.88
39275;BME280;24980;48.874;2.332;2023-09-12T12:18:10;100927.64;;;28.44;45.90
39275;BME280;24980;48.874;2.332;2023-09-12T12:20:41;100926.03;;;28.44;45.91
39275;BME280;24980;48.874;2.332;2023-09-12T12:23:12;100929.42;;;28.45;45.91
39275;BME280;24980;48.874;2.332;2023-09-12T12:25:47;100929.44;;;28.44;45.93
39275;BME280;24980;48.874;2.332;2023-09-12T12:28:12;100925.52;;;28.44;45.94
39275;BME280;24980;48.874;2.332;2023-09-12T12:30:43;100922.77;;;28.45;45.96
39275;BME280;24980;48.874;2.332;2023-09-12T12:33:13;100917.67;;;28.44;45.98
39275;BME280;24980;48.874;2.332;2023-09-12T12:35:42;100919.02;;;28.45;45.99
39275;BME280;24980;48.874;2.332;2023-09-12T12:38:15;100920.27;;;28.45;45.99
39275;BME280;24980;48.874;2.332;2023-09-12T12:40:43;100924.77;;;28.45;46.00
39275;BME280;24980;48.874;2.332;2023-09-12T12:43:20;100931.17;;;28.45;46.01
39275;BME280;24980;48.874;2.332;2023-09-12T12:45:57;100934.49;;;28.45;46.02
39275;BME280;24980;48.874;2.332;2023-09-12T12:48:13;100939.84;;;28.46;46.03
39275;BME280;24980;48.874;2.332;2023-09-12T12:50:43;100939.50;;;28.46;46.04
39275;BME280;24980;48.874;2.332;2023-09-12T12:53:13;100941.81;;;28.46;46.06
39275;BME280;24980;48.874;2.332;2023-09-12T12:55:48;100941.92;;;28.45;46.07
39275;BME280;24980;48.874;2.332;2023-09-12T12:58:15;100941.75;;;28.45;46.08
39275;BME280;24980;48.874;2.332;2023-09-12T13:00:45;100942.94;;;28.45;46.08
39275;BME280;24980;48.874;2.332;2023-09-12T13:03:16;100943.23;;;28.45;46.09
39275;BME280;24980;48.874;2.332;2023-09-12T13:05:45;100938.48;;;28.44;46.11
39275;BME280;24980;48.874;2.332;2023-09-12T13:08:15;100936.70;;;28.44;46.12
39275;BME280;24980;48.874;2.332;2023-09-12T13:10:45;100939.58;;;28.44;46.12
39275;BME280;24980;48.874;2.332;2023-09-12T13:13:16;100938.64;;;28.44;46.13
39275;BME280;24980;48.874;2.332;2023-09-12T13:15:46;100939.94;;;28.44;46.14
39275;BME280;24980;48.874;2.332;2023-09-12T13:18:16;100942.08;;;28.44;46.16
39275;BME280;24980;48.874;2.332;2023-09-12T13:20:46;100944.97;;;28.44;46.16
39275;BME280;24980;48.874;2.332;2023-09-12T13:23:16;100943.09;;;28.44;46.16
39275;BME280;24980;48.874;2.332;2023-09-12T13:25:46;100945.67;;;28.43;46.18
39275;BME280;24980;48.874;2.332;2023-09-12T13:28:16;100942.52;;;28.43;46.18